Browns Point, Washington
Current Conditions -  °F | °C
As of 5:53 PM on Monday 20 Oct 2014 (Local Time) from KTIW Reporting Station
Scattered Clouds Scattered Clouds  
Wind Chill: 58°   Ceiling: Unl
Heat Index: 58°   Visibility: 10mi
Dew Point: 51°   Wind: 8mph
Humidity: 78%   Direction: 170°S
Pressure: 29.76"   Gusts: NA
Location:  47.2894°N, 122.391°W
Report Text: KTIW 210053Z 17007KT 10SM FEW041 SCT070 SCT080 14/11 A2976 RMK AO2 RAB21E37 SLP076 P0000 T01440106
Loading
Personal Weather Stations






























Interactive Weather Map
Tropical Storm Tracking
New forecast layout! Learn more

10-Day Weather Forecast

Advertisements
Track Severe Weather on mobile